createdAt,value
2023-05-04T00:00:00.313Z,100250.44
2023-05-04T00:02:28.149Z,100257.72
2023-05-04T00:04:55.872Z,100256.41
2023-05-04T00:07:23.271Z,100253.41
2023-05-04T00:09:50.823Z,100251.75
2023-05-04T00:12:18.478Z,100252.78
2023-05-04T00:14:45.806Z,100251.94
2023-05-04T00:17:13.192Z,100243.66
2023-05-04T00:19:42.321Z,100252.78
2023-05-04T00:22:09.817Z,100246.00
2023-05-04T00:24:37.192Z,100239.91
2023-05-04T00:27:04.817Z,100240.94
2023-05-04T00:29:32.382Z,100233.47
2023-05-04T00:31:59.781Z,100234.13
2023-05-04T00:34:27.475Z,100231.06
2023-05-04T00:36:55.953Z,100230.41
2023-05-04T00:39:23.327Z,100233.63
2023-05-04T00:41:50.973Z,100234.16
2023-05-04T00:44:18.355Z,100228.19
2023-05-04T00:46:46.025Z,100227.69
2023-05-04T00:49:13.706Z,100232.81
2023-05-04T00:51:41.209Z,100238.81
2023-05-04T00:54:08.554Z,100231.81
2023-05-04T00:56:42.149Z,100228.72
2023-05-04T00:59:09.749Z,100227.31
2023-05-04T01:01:37.498Z,100229.09
2023-05-04T01:04:05.296Z,100227.88
2023-05-04T01:06:44.099Z,100220.94
2023-05-04T01:09:17.195Z,100222.63
2023-05-04T01:11:48.944Z,100226.03
2023-05-04T01:14:17.072Z,100226.53
2023-05-04T01:16:44.472Z,100224.28
2023-05-04T01:19:11.862Z,100221.16
2023-05-04T01:21:39.615Z,100233.37
2023-05-04T01:24:06.979Z,100224.72
2023-05-04T01:26:39.639Z,100220.47
2023-05-04T01:29:18.521Z,100226.03
2023-05-04T01:31:46.451Z,100225.06
2023-05-04T01:34:14.324Z,100227.56
2023-05-04T01:36:41.772Z,100228.31
2023-05-04T01:39:09.928Z,100231.13
2023-05-04T01:41:37.594Z,100224.22
2023-05-04T01:44:05.464Z,100227.56
2023-05-04T01:46:32.840Z,100224.16
2023-05-04T01:49:00.723Z,100225.03
2023-05-04T01:51:28.062Z,100224.69
2023-05-04T01:53:55.683Z,100221.84
2023-05-04T01:56:23.359Z,100220.88
2023-05-04T01:58:52.294Z,100219.84
2023-05-04T02:01:19.706Z,100217.75
2023-05-04T02:03:48.633Z,100214.25
2023-05-04T02:06:16.207Z,100216.44
2023-05-04T02:08:43.579Z,100211.97
2023-05-04T02:11:11.258Z,100216.56
2023-05-04T02:13:39.137Z,100221.78
2023-05-04T02:16:06.837Z,100223.34
2023-05-04T02:18:34.557Z,100215.41
2023-05-04T02:21:01.938Z,100217.91
2023-05-04T02:23:29.737Z,100212.69
2023-05-04T02:25:59.114Z,100216.53
2023-05-04T02:28:26.494Z,100219.63
2023-05-04T02:30:53.879Z,100216.47
2023-05-04T02:33:21.515Z,100207.44
2023-05-04T02:35:48.887Z,100212.81
2023-05-04T02:38:16.534Z,100211.25
2023-05-04T02:40:43.939Z,100216.97
2023-05-04T02:43:11.649Z,100225.47
2023-05-04T02:45:39.309Z,100217.84
2023-05-04T02:48:06.763Z,100220.09
2023-05-04T02:50:34.147Z,100212.59
2023-05-04T02:53:01.768Z,100219.44
2023-05-04T02:55:29.305Z,100217.28
2023-05-04T02:57:56.677Z,100218.12
2023-05-04T03:00:24.564Z,100219.28
2023-05-04T03:02:51.992Z,100216.84
2023-05-04T03:05:19.413Z,100229.75
2023-05-04T03:07:47.071Z,100224.56
2023-05-04T03:10:14.456Z,100222.72
2023-05-04T03:12:41.884Z,100221.50
2023-05-04T03:15:09.641Z,100224.88
2023-05-04T03:17:37.261Z,100223.56
2023-05-04T03:20:05.845Z,100223.16
2023-05-04T03:22:34.014Z,100224.50
2023-05-04T03:25:01.646Z,100230.87
2023-05-04T03:27:29.762Z,100233.66
2023-05-04T03:29:57.580Z,100221.94
2023-05-04T03:32:26.450Z,100226.87
2023-05-04T03:34:53.946Z,100233.66
2023-05-04T03:37:22.968Z,100230.31
2023-05-04T03:39:50.376Z,100238.91
2023-05-04T03:42:17.772Z,100240.87
2023-05-04T03:44:46.573Z,100232.22
2023-05-04T03:47:14.008Z,100236.19
2023-05-04T03:49:41.367Z,100239.50
2023-05-04T03:52:08.946Z,100231.84
2023-05-04T03:54:37.738Z,100242.25
2023-05-04T03:57:05.210Z,100241.75
2023-05-04T03:59:33.281Z,100243.13
2023-05-04T04:02:02.669Z,100245.47
2023-05-04T04:04:30.403Z,100255.88
2023-05-04T04:06:58.048Z,100246.19
2023-05-04T04:09:25.806Z,100244.31
2023-05-04T04:11:53.454Z,100241.53
2023-05-04T04:14:20.824Z,100243.63
2023-05-04T04:16:48.199Z,100242.09
2023-05-04T04:19:15.843Z,100248.03
2023-05-04T04:21:43.192Z,100249.31
2023-05-04T04:24:11.138Z,100250.31
2023-05-04T04:26:38.942Z,100248.81
2023-05-04T04:29:06.350Z,100259.75
2023-05-04T04:31:33.772Z,100252.16
2023-05-04T04:34:01.398Z,100256.84
2023-05-04T04:36:28.807Z,100258.44
2023-05-04T04:38:56.384Z,100254.59
2023-05-04T04:41:25.042Z,100258.03
2023-05-04T04:43:52.475Z,100255.50
2023-05-04T04:46:19.902Z,100249.38
2023-05-04T04:48:47.897Z,100246.28
2023-05-04T04:51:15.292Z,100254.47
2023-05-04T04:53:42.624Z,100256.56
2023-05-04T04:56:10.547Z,100252.84
2023-05-04T04:58:37.961Z,100260.44
2023-05-04T05:01:05.539Z,100253.31
2023-05-04T05:03:33.835Z,100270.69
2023-05-04T05:06:04.074Z,100264.31
2023-05-04T05:08:32.801Z,100261.47
2023-05-04T05:11:00.395Z,100250.16
2023-05-04T05:13:27.748Z,100262.62
2023-05-04T05:15:55.106Z,100254.94
2023-05-04T05:18:23.249Z,100254.50
2023-05-04T05:20:50.737Z,100260.16
2023-05-04T05:23:18.090Z,100261.69
2023-05-04T05:25:45.772Z,100261.13
2023-05-04T05:28:16.408Z,100262.66
2023-05-04T05:30:44.169Z,100259.34
2023-05-04T05:33:12.023Z,100258.91
2023-05-04T05:35:39.782Z,100260.81
2023-05-04T05:38:07.159Z,100261.41
2023-05-04T05:40:34.814Z,100262.69
2023-05-04T05:43:02.656Z,100253.19
2023-05-04T05:45:30.210Z,100250.81
2023-05-04T05:47:57.852Z,100252.59
2023-05-04T05:50:25.234Z,100249.25
2023-05-04T05:52:52.654Z,100251.50
2023-05-04T05:55:20.291Z,100256.31
2023-05-04T05:57:47.797Z,100254.75
2023-05-04T06:00:15.855Z,100255.53
2023-05-04T06:02:43.714Z,100256.38
2023-05-04T06:05:11.685Z,100252.66
2023-05-04T06:07:39.548Z,100256.81
2023-05-04T06:10:07.588Z,100253.31
2023-05-04T06:12:35.522Z,100253.25
2023-05-04T06:15:02.955Z,100256.31
2023-05-04T06:17:31.144Z,100253.56
2023-05-04T06:19:58.529Z,100251.97
2023-05-04T06:22:25.875Z,100250.19
2023-05-04T06:24:56.790Z,100252.09
2023-05-04T06:27:28.949Z,100253.06
2023-05-04T06:29:56.622Z,100247.97
2023-05-04T06:32:24.012Z,100246.44
2023-05-04T06:34:57.447Z,100249.38
2023-05-04T06:37:26.449Z,100263.91
2023-05-04T06:39:54.679Z,100261.66
2023-05-04T06:42:22.067Z,100257.37
2023-05-04T06:44:51.350Z,100272.06
2023-05-04T06:47:18.717Z,100274.19
2023-05-04T06:49:46.043Z,100268.00
2023-05-04T06:52:14.418Z,100261.06
2023-05-04T06:54:41.895Z,100279.75
2023-05-04T06:57:09.268Z,100277.75
2023-05-04T06:59:37.032Z,100282.13
2023-05-04T07:02:04.666Z,100283.28
2023-05-04T07:04:32.080Z,100269.69
2023-05-04T07:06:59.705Z,100261.19
2023-05-04T07:09:27.305Z,100259.00
2023-05-04T07:11:54.667Z,100257.28
2023-05-04T07:14:22.328Z,100257.97
2023-05-04T07:16:49.728Z,100246.44
2023-05-04T07:19:17.552Z,100252.12
2023-05-04T07:21:45.217Z,100244.50
2023-05-04T07:24:12.574Z,100248.09
2023-05-04T07:26:39.934Z,100240.72
2023-05-04T07:29:07.600Z,100240.06
2023-05-04T07:31:35.270Z,100239.50
2023-05-04T07:34:02.675Z,100235.97
2023-05-04T07:36:30.698Z,100221.94
2023-05-04T07:38:58.102Z,100215.03
2023-05-04T07:41:26.403Z,100219.56
2023-05-04T07:43:54.032Z,100222.34
2023-05-04T07:46:21.437Z,100234.25
2023-05-04T07:48:49.414Z,100235.47
2023-05-04T07:51:17.073Z,100227.84
2023-05-04T07:53:44.418Z,100217.16
2023-05-04T07:56:12.670Z,100223.19
2023-05-04T07:58:41.423Z,100222.00
2023-05-04T08:01:08.836Z,100220.88
2023-05-04T08:03:36.556Z,100213.34
2023-05-04T08:06:03.935Z,100209.06
2023-05-04T08:08:31.333Z,100212.00
2023-05-04T08:11:11.566Z,100224.53
2023-05-04T08:13:40.276Z,100216.84
2023-05-04T08:16:09.428Z,100204.00
2023-05-04T08:18:37.179Z,100201.12
2023-05-04T08:21:05.054Z,100210.69
2023-05-04T08:23:33.522Z,100211.75
2023-05-04T08:26:04.337Z,100226.84
2023-05-04T08:28:40.476Z,100222.75
2023-05-04T08:31:08.269Z,100227.56
2023-05-04T08:33:35.628Z,100216.69
2023-05-04T08:36:04.462Z,100224.06
2023-05-04T08:38:32.205Z,100225.28
2023-05-04T08:41:05.437Z,100241.28
2023-05-04T08:43:36.779Z,100223.50
2023-05-04T08:46:04.856Z,100220.94
2023-05-04T08:48:35.484Z,100235.91
2023-05-04T08:51:04.348Z,100233.19
2023-05-04T08:53:31.951Z,100232.56
2023-05-04T08:56:04.682Z,100227.78
2023-05-04T08:58:32.139Z,100240.13
2023-05-04T09:00:59.875Z,100233.97
2023-05-04T09:03:28.007Z,100237.47
2023-05-04T09:05:55.519Z,100231.78
2023-05-04T09:08:23.148Z,100246.12
2023-05-04T09:10:50.493Z,100241.84
2023-05-04T09:13:18.026Z,100241.66
2023-05-04T09:15:55.781Z,100236.53
2023-05-04T09:18:23.491Z,100231.81
2023-05-04T09:20:51.256Z,100235.78
2023-05-04T09:23:18.757Z,100229.88
2023-05-04T09:25:49.812Z,100247.72
2023-05-04T09:28:18.211Z,100249.47
2023-05-04T09:30:46.918Z,100246.81
2023-05-04T09:33:17.624Z,100254.91
2023-05-04T09:35:45.494Z,100263.59
2023-05-04T09:38:24.112Z,100256.28
2023-05-04T09:40:52.179Z,100268.84
2023-05-04T09:43:19.536Z,100273.41
2023-05-04T09:45:47.359Z,100267.97
2023-05-04T09:48:29.377Z,100263.16
2023-05-04T09:51:00.972Z,100254.31
2023-05-04T09:53:29.638Z,100268.03
2023-05-04T09:56:11.238Z,100260.63
2023-05-04T09:58:39.023Z,100249.16
2023-05-04T10:01:06.450Z,100251.78
2023-05-04T10:03:34.095Z,100250.37
2023-05-04T10:06:04.319Z,100255.03
2023-05-04T10:08:32.685Z,100241.84
2023-05-04T10:11:00.430Z,100254.50
2023-05-04T10:13:28.136Z,100246.06
2023-05-04T10:16:01.442Z,100249.16
2023-05-04T10:19:03.898Z,100251.56
2023-05-04T10:21:56.173Z,100248.06
2023-05-04T10:24:39.380Z,100239.09
2023-05-04T10:27:19.376Z,100242.94
2023-05-04T10:29:50.834Z,100242.41
2023-05-04T10:32:20.067Z,100229.53
2023-05-04T10:34:47.988Z,100233.84
2023-05-04T10:37:19.453Z,100226.56
2023-05-04T10:39:53.689Z,100228.66
2023-05-04T10:42:21.474Z,100219.09
2023-05-04T10:44:55.563Z,100218.19
2023-05-04T10:47:33.402Z,100220.22
2023-05-04T10:50:04.674Z,100217.88
2023-05-04T10:52:33.020Z,100207.00
2023-05-04T10:55:05.513Z,100216.16
2023-05-04T10:57:33.340Z,100209.22
2023-05-04T11:00:01.657Z,100201.38
2023-05-04T11:02:31.662Z,100202.44
2023-05-04T11:05:02.059Z,100197.69
2023-05-04T11:07:37.539Z,100198.16
2023-05-04T11:10:06.078Z,100189.06
2023-05-04T11:12:33.557Z,100187.22
2023-05-04T11:15:10.183Z,100188.63
2023-05-04T11:17:53.290Z,100177.13
2023-05-04T11:20:24.697Z,100176.09
2023-05-04T11:22:53.110Z,100167.16
2023-05-04T11:25:29.664Z,100174.72
2023-05-04T11:27:58.412Z,100172.72
2023-05-04T11:30:53.286Z,100182.87
2023-05-04T11:33:22.707Z,100172.75
2023-05-04T11:35:50.206Z,100169.69
2023-05-04T11:38:19.963Z,100181.16
2023-05-04T11:40:47.828Z,100174.19
2023-05-04T11:43:15.200Z,100180.72
2023-05-04T11:45:42.669Z,100175.91
2023-05-04T11:48:10.375Z,100179.78
2023-05-04T11:50:37.790Z,100180.19
2023-05-04T11:53:09.633Z,100181.41
2023-05-04T11:55:38.056Z,100185.31
2023-05-04T11:58:09.787Z,100183.97
2023-05-04T12:00:41.651Z,100172.78
2023-05-04T12:03:16.615Z,100179.06
2023-05-04T12:05:48.437Z,100183.66
2023-05-04T12:08:26.352Z,100177.47
2023-05-04T12:11:09.093Z,100171.16
2023-05-04T12:13:36.851Z,100176.00
2023-05-04T12:16:11.042Z,100184.19
2023-05-04T12:18:38.767Z,100181.47
2023-05-04T12:21:10.442Z,100175.69
2023-05-04T12:23:38.697Z,100178.31
2023-05-04T12:26:06.776Z,100167.44
2023-05-04T12:28:37.676Z,100167.28
2023-05-04T12:31:05.225Z,100159.25
2023-05-04T12:33:33.289Z,100161.66
2023-05-04T12:36:01.319Z,100160.06
2023-05-04T12:38:29.055Z,100158.66
2023-05-04T12:40:59.040Z,100167.41
2023-05-04T12:43:26.955Z,100146.56
2023-05-04T12:45:54.586Z,100146.75
2023-05-04T12:48:22.424Z,100144.06
2023-05-04T12:50:50.874Z,100136.09
2023-05-04T12:53:18.539Z,100142.19
2023-05-04T12:55:46.698Z,100141.75
2023-05-04T12:58:14.099Z,100153.22
2023-05-04T13:00:41.542Z,100138.00
2023-05-04T13:03:09.731Z,100133.66
2023-05-04T13:05:37.250Z,100123.72
2023-05-04T13:08:04.816Z,100133.22
2023-05-04T13:10:32.949Z,100127.59
2023-05-04T13:13:00.453Z,100127.22
2023-05-04T13:15:28.094Z,100128.13
2023-05-04T13:17:55.731Z,100120.41
2023-05-04T13:20:23.148Z,100108.06
2023-05-04T13:22:51.667Z,100119.16
2023-05-04T13:25:19.366Z,100112.88
2023-05-04T13:27:46.757Z,100103.41
2023-05-04T13:30:14.221Z,100107.88
2023-05-04T13:32:42.081Z,100104.91
2023-05-04T13:35:09.771Z,100101.31
2023-05-04T13:37:38.199Z,100108.75
2023-05-04T13:40:06.218Z,100108.06
2023-05-04T13:42:36.369Z,100105.53
2023-05-04T13:45:05.565Z,100116.56
2023-05-04T13:47:34.148Z,100095.56
2023-05-04T13:50:02.095Z,100112.44
2023-05-04T13:52:31.954Z,100112.44
2023-05-04T13:55:00.257Z,100120.62
2023-05-04T13:57:28.039Z,100109.28
2023-05-04T14:00:06.328Z,100109.38
2023-05-04T14:02:37.956Z,100110.22
2023-05-04T14:05:06.888Z,100101.63
2023-05-04T14:07:34.630Z,100111.41
2023-05-04T14:10:02.473Z,100098.72
2023-05-04T14:12:30.257Z,100091.63
2023-05-04T14:14:58.965Z,100088.13
2023-05-04T14:17:26.474Z,100091.16
2023-05-04T14:19:54.093Z,100091.78
2023-05-04T14:22:21.430Z,100075.91
2023-05-04T14:24:49.435Z,100079.22
2023-05-04T14:27:17.575Z,100085.06
2023-05-04T14:29:47.622Z,100084.84
2023-05-04T14:32:15.537Z,100085.13
2023-05-04T14:34:43.208Z,100078.44
2023-05-04T14:37:10.570Z,100077.78
2023-05-04T14:39:39.415Z,100077.69
2023-05-04T14:42:07.058Z,100083.38
2023-05-04T14:44:34.465Z,100087.84
2023-05-04T14:47:04.836Z,100085.69
2023-05-04T14:49:37.165Z,100072.75
2023-05-04T14:52:05.131Z,100074.63
2023-05-04T14:54:32.629Z,100074.31
2023-05-04T14:57:00.316Z,100074.09
2023-05-04T14:59:27.790Z,100080.59
2023-05-04T15:01:55.741Z,100086.94
2023-05-04T15:04:23.521Z,100085.63
2023-05-04T15:06:52.340Z,100084.47
2023-05-04T15:09:19.744Z,100077.50
2023-05-04T15:11:48.559Z,100085.31
2023-05-04T15:14:16.293Z,100079.03
2023-05-04T15:16:43.703Z,100080.03
2023-05-04T15:19:11.313Z,100085.41
2023-05-04T15:21:38.724Z,100089.19
2023-05-04T15:24:06.154Z,100086.34
2023-05-04T15:26:34.632Z,100071.63
2023-05-04T15:29:02.111Z,100087.87
2023-05-04T15:31:29.594Z,100084.19
2023-05-04T15:33:57.239Z,100077.72
2023-05-04T15:36:24.762Z,100080.87
2023-05-04T15:38:52.152Z,100082.62
2023-05-04T15:41:19.804Z,100086.84
2023-05-04T15:43:47.192Z,100085.47
2023-05-04T15:46:14.590Z,100083.19
2023-05-04T15:48:42.553Z,100086.16
2023-05-04T15:51:11.213Z,100080.03
2023-05-04T15:53:38.797Z,100079.81
2023-05-04T15:56:06.525Z,100079.25
2023-05-04T15:58:33.931Z,100078.97
2023-05-04T16:01:04.064Z,100071.84
2023-05-04T16:03:32.247Z,100075.06
2023-05-04T16:05:59.801Z,100075.28
2023-05-04T16:08:27.477Z,100084.13
2023-05-04T16:10:55.925Z,100077.09
2023-05-04T16:13:23.321Z,100080.75
2023-05-04T16:15:51.330Z,100069.94
2023-05-04T16:18:19.026Z,100073.00
2023-05-04T16:20:47.229Z,100074.94
2023-05-04T16:23:15.763Z,100073.34
2023-05-04T16:25:43.515Z,100068.13
2023-05-04T16:28:11.171Z,100071.44
2023-05-04T16:30:38.654Z,100078.28
2023-05-04T16:33:06.345Z,100074.44
2023-05-04T16:35:34.485Z,100081.31
2023-05-04T16:38:01.985Z,100071.84
2023-05-04T16:40:30.767Z,100074.84
2023-05-04T16:42:58.607Z,100083.50
2023-05-04T16:45:31.197Z,100077.13
2023-05-04T16:47:58.973Z,100080.78
2023-05-04T16:50:26.433Z,100081.94
2023-05-04T16:52:53.861Z,100087.19
2023-05-04T16:55:21.732Z,100092.91
2023-05-04T16:57:49.521Z,100092.19
2023-05-04T17:00:17.082Z,100090.59
2023-05-04T17:02:45.482Z,100099.59
2023-05-04T17:05:12.989Z,100101.72
2023-05-04T17:07:43.024Z,100095.56
2023-05-04T17:10:10.974Z,100097.06
2023-05-04T17:12:38.587Z,100097.78
2023-05-04T17:15:06.622Z,100101.41
2023-05-04T17:17:34.254Z,100106.84
2023-05-04T17:20:02.446Z,100099.66
2023-05-04T17:22:29.880Z,100105.31
2023-05-04T17:24:57.554Z,100108.37
2023-05-04T17:27:24.927Z,100104.84
2023-05-04T17:29:52.270Z,100100.47
2023-05-04T17:32:20.037Z,100098.03
2023-05-04T17:34:47.432Z,100106.44
2023-05-04T17:37:14.810Z,100107.91
2023-05-04T17:39:42.480Z,100103.41
2023-05-04T17:42:10.774Z,100110.22
2023-05-04T17:44:38.134Z,100106.94
2023-05-04T17:47:06.284Z,100108.31
2023-05-04T17:49:33.623Z,100121.97
2023-05-04T17:52:01.433Z,100121.50
2023-05-04T17:54:29.034Z,100117.78
2023-05-04T17:56:56.401Z,100121.69
2023-05-04T17:59:23.757Z,100127.44
2023-05-04T18:01:51.401Z,100128.03
2023-05-04T18:04:19.038Z,100132.28
2023-05-04T18:06:47.022Z,100132.22
2023-05-04T18:09:15.534Z,100145.44
2023-05-04T18:11:43.177Z,100141.28
2023-05-04T18:14:10.569Z,100149.69
2023-05-04T18:16:39.300Z,100146.56
2023-05-04T18:19:07.108Z,100156.13
2023-05-04T18:21:37.434Z,100162.50
2023-05-04T18:24:05.035Z,100158.50
2023-05-04T18:26:32.677Z,100156.78
2023-05-04T18:29:11.110Z,100165.53
2023-05-04T18:31:45.380Z,100163.59
2023-05-04T18:34:12.827Z,100173.13
2023-05-04T18:36:40.518Z,100174.31
2023-05-04T18:39:08.716Z,100174.91
2023-05-04T18:41:36.108Z,100183.53
2023-05-04T18:44:15.356Z,100183.44
2023-05-04T18:46:42.790Z,100183.63
2023-05-04T18:49:10.263Z,100190.84
2023-05-04T18:51:41.565Z,100196.16
2023-05-04T18:54:09.164Z,100198.44
2023-05-04T18:56:36.548Z,100196.72
2023-05-04T18:59:06.041Z,100196.75
2023-05-04T19:01:33.467Z,100203.37
2023-05-04T19:04:01.321Z,100200.50
2023-05-04T19:06:28.782Z,100209.31
2023-05-04T19:08:56.148Z,100203.53
2023-05-04T19:11:23.847Z,100208.28
2023-05-04T19:13:51.458Z,100212.06
2023-05-04T19:16:18.946Z,100214.53
2023-05-04T19:18:46.673Z,100214.63
2023-05-04T19:21:14.058Z,100214.53
2023-05-04T19:23:41.388Z,100212.44
2023-05-04T19:26:09.315Z,100217.28
2023-05-04T19:28:36.838Z,100226.09
2023-05-04T19:31:04.246Z,100229.09
2023-05-04T19:33:44.632Z,100227.59
2023-05-04T19:36:16.314Z,100227.31
2023-05-04T19:38:44.104Z,100236.63
2023-05-04T19:41:11.482Z,100236.63
2023-05-04T19:43:39.034Z,100246.16
2023-05-04T19:46:06.790Z,100238.66
2023-05-04T19:48:34.187Z,100224.97
2023-05-04T19:51:02.169Z,100230.84
2023-05-04T19:53:31.153Z,100237.03
2023-05-04T19:55:58.560Z,100225.91
2023-05-04T19:58:28.121Z,100228.97
2023-05-04T20:00:56.089Z,100237.88
2023-05-04T20:03:24.011Z,100237.06
2023-05-04T20:05:51.830Z,100233.72
2023-05-04T20:08:19.193Z,100232.03
2023-05-04T20:10:46.901Z,100235.59
2023-05-04T20:13:14.790Z,100241.34
2023-05-04T20:15:42.741Z,100237.03
2023-05-04T20:18:10.364Z,100241.34
2023-05-04T20:20:37.929Z,100239.94
2023-05-04T20:23:05.334Z,100246.75
2023-05-04T20:25:32.998Z,100253.81
2023-05-04T20:28:00.770Z,100246.12
2023-05-04T20:30:28.907Z,100240.31
2023-05-04T20:32:56.632Z,100245.91
2023-05-04T20:35:24.059Z,100235.56
2023-05-04T20:37:51.404Z,100244.63
2023-05-04T20:40:19.730Z,100238.00
2023-05-04T20:42:47.231Z,100241.34
2023-05-04T20:45:14.587Z,100237.78
2023-05-04T20:47:42.706Z,100237.63
2023-05-04T20:50:11.876Z,100234.44
2023-05-04T20:52:39.298Z,100233.28
2023-05-04T20:55:07.958Z,100236.16
2023-05-04T20:57:35.416Z,100235.34
2023-05-04T21:00:03.272Z,100233.50
2023-05-04T21:02:31.591Z,100234.47
2023-05-04T21:04:58.997Z,100231.81
2023-05-04T21:07:26.343Z,100228.41
2023-05-04T21:09:58.138Z,100232.88
2023-05-04T21:12:25.956Z,100237.19
2023-05-04T21:14:53.579Z,100236.59
2023-05-04T21:17:20.986Z,100244.09
2023-05-04T21:19:48.369Z,100253.38
2023-05-04T21:22:17.667Z,100258.34
2023-05-04T21:24:46.532Z,100261.19
2023-05-04T21:27:14.075Z,100266.12
2023-05-04T21:29:41.706Z,100261.94
2023-05-04T21:32:09.219Z,100264.31
2023-05-04T21:34:36.599Z,100253.03
2023-05-04T21:37:04.243Z,100255.53
2023-05-04T21:39:31.828Z,100249.69
2023-05-04T21:41:59.206Z,100252.25
2023-05-04T21:44:26.811Z,100246.06
2023-05-04T21:46:55.796Z,100249.00
2023-05-04T21:49:23.215Z,100251.28
2023-05-04T21:51:50.966Z,100250.97
2023-05-04T21:54:18.318Z,100258.31
2023-05-04T21:56:45.709Z,100252.16
2023-05-04T21:59:13.328Z,100258.53
2023-05-04T22:01:42.370Z,100257.75
2023-05-04T22:04:10.060Z,100258.13
2023-05-04T22:06:37.632Z,100258.53
2023-05-04T22:09:05.149Z,100254.81
2023-05-04T22:11:32.802Z,100259.41
2023-05-04T22:14:00.259Z,100260.81
2023-05-04T22:16:27.856Z,100273.31
2023-05-04T22:18:55.493Z,100274.28
2023-05-04T22:21:22.814Z,100270.38
2023-05-04T22:23:50.298Z,100272.22
2023-05-04T22:26:17.912Z,100269.72
2023-05-04T22:28:45.330Z,100267.03
2023-05-04T22:31:12.718Z,100271.78
2023-05-04T22:33:40.356Z,100267.03
2023-05-04T22:36:07.853Z,100268.00
2023-05-04T22:38:35.192Z,100268.63
2023-05-04T22:41:03.201Z,100272.38
2023-05-04T22:43:30.660Z,100271.56
2023-05-04T22:45:58.011Z,100270.09
2023-05-04T22:48:25.709Z,100267.56
2023-05-04T22:50:53.171Z,100264.72
2023-05-04T22:53:20.679Z,100264.72
2023-05-04T22:55:48.287Z,100255.59
2023-05-04T22:58:15.835Z,100263.53
2023-05-04T23:00:43.213Z,100268.22
2023-05-04T23:03:10.922Z,100259.28
2023-05-04T23:05:38.329Z,100254.34
2023-05-04T23:08:05.793Z,100257.47
2023-05-04T23:10:33.434Z,100260.56
2023-05-04T23:13:01.113Z,100260.66
2023-05-04T23:15:28.484Z,100258.78
2023-05-04T23:17:56.115Z,100258.78
2023-05-04T23:20:23.428Z,100255.97
2023-05-04T23:22:51.036Z,100255.91
2023-05-04T23:25:18.638Z,100255.50
2023-05-04T23:27:45.969Z,100257.94
2023-05-04T23:30:13.363Z,100252.03
2023-05-04T23:32:40.987Z,100244.84
2023-05-04T23:35:08.702Z,100242.41
2023-05-04T23:37:36.201Z,100241.13
2023-05-04T23:40:04.013Z,100252.09
2023-05-04T23:42:31.404Z,100248.41
2023-05-04T23:44:58.764Z,100248.88
2023-05-04T23:47:26.353Z,100250.72
2023-05-04T23:49:53.715Z,100242.69
2023-05-04T23:52:21.082Z,100249.72
2023-05-04T23:54:52.823Z,100243.69
2023-05-04T23:57:20.179Z,100244.94
2023-05-04T23:59:47.653Z,100247.34
